createdAt,value
2018-12-27T00:01:27.664Z,1.51
2018-12-27T00:06:46.476Z,1.56
2018-12-27T00:12:05.114Z,1.60
2018-12-27T00:17:23.825Z,1.67
2018-12-27T00:22:42.761Z,1.67
2018-12-27T00:28:01.767Z,1.65
2018-12-27T00:33:20.659Z,1.64
2018-12-27T00:38:39.436Z,1.59
2018-12-27T00:43:58.198Z,1.64
2018-12-27T00:49:16.858Z,1.68
2018-12-27T00:54:35.681Z,1.64
2018-12-27T00:59:54.356Z,1.73
2018-12-27T01:05:13.017Z,1.71
2018-12-27T01:10:32.180Z,1.72
2018-12-27T01:15:50.777Z,1.89
2018-12-27T01:21:09.485Z,2.01
2018-12-27T01:26:28.148Z,1.95
2018-12-27T01:31:50.555Z,1.88
2018-12-27T01:37:07.262Z,1.96
2018-12-27T01:42:25.881Z,1.92
2018-12-27T01:47:44.602Z,1.94
2018-12-27T01:53:03.455Z,1.93
2018-12-27T01:58:22.151Z,1.88
2018-12-27T02:03:40.793Z,1.77
2018-12-27T02:08:59.441Z,1.78
2018-12-27T02:14:18.152Z,1.79
2018-12-27T02:19:36.750Z,1.88
2018-12-27T02:24:55.651Z,1.84
2018-12-27T02:30:14.286Z,1.77
2018-12-27T02:35:33.042Z,1.68
2018-12-27T02:40:51.739Z,1.80
2018-12-27T02:46:10.398Z,1.72
2018-12-27T02:51:28.928Z,1.75
2018-12-27T02:56:47.626Z,1.74
2018-12-27T03:02:06.249Z,1.72
2018-12-27T03:07:24.875Z,1.75
2018-12-27T03:12:43.815Z,1.73
2018-12-27T03:18:02.486Z,1.81
2018-12-27T03:23:21.164Z,1.84
2018-12-27T03:28:39.930Z,1.79
2018-12-27T03:33:58.556Z,1.71
2018-12-27T03:39:17.510Z,1.69
2018-12-27T03:44:36.296Z,1.63
2018-12-27T03:49:54.980Z,1.62
2018-12-27T03:55:13.914Z,1.48
2018-12-27T04:00:32.611Z,1.37
2018-12-27T04:05:51.700Z,1.39
2018-12-27T04:11:10.802Z,1.25
2018-12-27T04:16:29.442Z,1.13
2018-12-27T04:21:48.123Z,1.11
2018-12-27T04:27:06.662Z,1.01
2018-12-27T04:32:25.543Z,0.89
2018-12-27T04:37:44.159Z,0.85
2018-12-27T04:43:02.988Z,0.74
2018-12-27T04:48:21.616Z,0.72
2018-12-27T04:53:40.625Z,0.60
2018-12-27T04:58:59.298Z,0.50
2018-12-27T05:04:18.550Z,0.44
2018-12-27T05:09:37.650Z,0.34
2018-12-27T05:14:56.243Z,0.33
2018-12-27T05:20:14.815Z,0.28
2018-12-27T05:25:33.468Z,0.30
2018-12-27T05:30:52.091Z,0.32
2018-12-27T05:36:10.943Z,0.20
2018-12-27T05:41:29.601Z,0.11
2018-12-27T05:46:48.223Z,0.13
2018-12-27T05:52:06.724Z,0.07
2018-12-27T05:57:25.368Z,0.08
2018-12-27T06:02:44.262Z,0.04
2018-12-27T06:08:03.222Z,0.00
2018-12-27T06:13:22.115Z,0.02
2018-12-27T06:18:40.691Z,0.00
2018-12-27T06:23:59.397Z,-0.04
2018-12-27T06:29:18.095Z,-0.12
2018-12-27T06:34:41.349Z,-0.11
2018-12-27T06:39:57.424Z,-0.16
2018-12-27T06:45:16.303Z,-0.21
2018-12-27T06:50:34.880Z,-0.27
2018-12-27T06:55:53.527Z,-0.25
2018-12-27T07:01:12.227Z,-0.32
2018-12-27T07:06:30.967Z,-0.31
2018-12-27T07:11:49.547Z,-0.31
2018-12-27T07:17:08.204Z,-0.39
2018-12-27T07:22:26.703Z,-0.42
2018-12-27T07:27:45.345Z,-0.45
2018-12-27T07:33:04.272Z,-0.44
2018-12-27T07:38:22.805Z,-0.41
2018-12-27T07:43:41.444Z,-0.49
2018-12-27T07:49:00.086Z,-0.43
2018-12-27T07:54:18.755Z,-0.40
2018-12-27T07:59:37.400Z,-0.37
2018-12-27T08:04:56.020Z,-0.28
2018-12-27T08:10:14.665Z,-0.26
2018-12-27T08:15:33.211Z,-0.29
2018-12-27T08:20:51.783Z,-0.11
2018-12-27T08:26:10.348Z,0.05
2018-12-27T08:31:28.950Z,0.13
2018-12-27T08:36:47.617Z,0.11
2018-12-27T08:42:06.214Z,0.21
2018-12-27T08:47:25.682Z,0.27
2018-12-27T08:52:44.775Z,0.41
2018-12-27T08:58:03.441Z,0.57
2018-12-27T09:03:21.984Z,1.25
2018-12-27T09:08:40.725Z,1.06
2018-12-27T09:13:59.396Z,0.91
2018-12-27T09:19:18.095Z,0.80
2018-12-27T09:24:38.382Z,0.88
2018-12-27T09:29:56.949Z,0.97
2018-12-27T09:35:15.670Z,1.03
2018-12-27T09:40:34.293Z,1.08
2018-12-27T09:45:52.989Z,1.23
2018-12-27T09:51:11.709Z,1.47
2018-12-27T09:56:30.261Z,1.65
2018-12-27T10:01:49.019Z,1.80
2018-12-27T10:07:07.731Z,1.95
2018-12-27T10:12:27.648Z,2.09
2018-12-27T10:17:46.301Z,2.44
2018-12-27T10:23:05.060Z,2.55
2018-12-27T10:28:23.872Z,2.75
2018-12-27T10:33:42.578Z,2.97
2018-12-27T10:39:01.225Z,3.11
2018-12-27T10:44:19.771Z,3.31
2018-12-27T10:49:38.716Z,3.54
2018-12-27T10:54:57.537Z,3.67
2018-12-27T11:00:16.314Z,3.82
2018-12-27T11:05:34.957Z,4.04
2018-12-27T11:10:53.599Z,4.13
2018-12-27T11:16:12.241Z,4.22
2018-12-27T11:21:32.476Z,4.34
2018-12-27T11:26:51.293Z,4.40
2018-12-27T11:32:15.489Z,4.46
2018-12-27T11:37:34.147Z,4.58
2018-12-27T11:42:52.975Z,4.77
2018-12-27T11:48:11.611Z,4.99
2018-12-27T11:53:30.203Z,5.23
2018-12-27T11:58:50.100Z,5.57
2018-12-27T12:04:08.824Z,5.59
2018-12-27T12:09:27.569Z,5.62
2018-12-27T12:14:46.217Z,5.79
2018-12-27T12:20:07.431Z,5.78
2018-12-27T12:25:26.134Z,5.87
2018-12-27T12:30:44.794Z,6.08
2018-12-27T12:36:10.378Z,6.04
2018-12-27T12:41:38.606Z,6.21
2018-12-27T12:46:45.169Z,6.15
2018-12-27T12:52:03.824Z,6.18
2018-12-27T12:57:22.589Z,6.28
2018-12-27T13:02:41.126Z,6.20
2018-12-27T13:07:59.908Z,6.34
2018-12-27T13:13:18.363Z,6.44
2018-12-27T13:18:36.896Z,6.34
2018-12-27T13:23:55.432Z,6.43
2018-12-27T13:29:13.953Z,6.27
2018-12-27T13:34:32.422Z,6.24
2018-12-27T13:39:50.889Z,6.26
2018-12-27T13:45:09.345Z,6.20
2018-12-27T13:50:27.883Z,6.25
2018-12-27T13:55:46.346Z,6.89
2018-12-27T14:01:18.527Z,6.66
2018-12-27T14:17:40.185Z,6.23
2018-12-27T14:22:58.717Z,6.11
2018-12-27T14:28:17.173Z,6.02
2018-12-27T14:33:35.631Z,6.11
2018-12-27T14:38:54.092Z,6.07
2018-12-27T14:44:12.552Z,6.02
2018-12-27T14:49:31.004Z,5.93
2018-12-27T14:54:49.543Z,5.95
2018-12-27T15:00:47.894Z,5.67
2018-12-27T15:06:06.361Z,5.61
2018-12-27T15:11:25.238Z,5.38
2018-12-27T15:16:45.036Z,5.26
2018-12-27T15:22:03.974Z,5.29
2018-12-27T15:27:22.456Z,5.14
2018-12-27T15:32:40.910Z,5.03
2018-12-27T15:37:59.376Z,4.80
2018-12-27T15:43:18.256Z,4.71
2018-12-27T15:48:36.711Z,4.65
2018-12-27T15:53:55.169Z,4.54
2018-12-27T15:59:13.641Z,4.32
2018-12-27T16:04:32.109Z,4.25
2018-12-27T16:09:50.574Z,4.01
2018-12-27T16:15:09.115Z,3.62
2018-12-27T16:20:27.646Z,3.62
2018-12-27T16:25:46.104Z,4.12
2018-12-27T16:31:04.699Z,4.20
2018-12-27T16:41:55.736Z,3.79
2018-12-27T16:47:14.274Z,3.65
2018-12-27T16:52:32.989Z,3.66
2018-12-27T16:57:51.795Z,3.53
2018-12-27T17:03:10.330Z,3.43
2018-12-27T17:08:28.796Z,3.42
2018-12-27T17:13:47.322Z,3.37
2018-12-27T17:19:05.857Z,3.43
2018-12-27T17:24:24.319Z,3.06
2018-12-27T17:29:42.845Z,2.85
2018-12-27T17:35:01.307Z,2.82
2018-12-27T17:40:19.769Z,2.93
2018-12-27T17:45:38.226Z,3.01
2018-12-27T17:50:56.774Z,2.91
2018-12-27T17:56:15.248Z,2.90
2018-12-27T18:01:33.718Z,2.91
2018-12-27T18:06:52.183Z,2.78
2018-12-27T18:12:10.665Z,2.79
2018-12-27T18:17:29.518Z,2.72
2018-12-27T18:22:47.984Z,2.77
2018-12-27T18:28:06.458Z,2.50
2018-12-27T18:33:24.922Z,2.48
2018-12-27T18:49:46.554Z,2.41
2018-12-27T18:55:45.608Z,2.29
2018-12-27T19:01:04.222Z,2.22
2018-12-27T19:06:22.886Z,2.16
2018-12-27T19:12:19.933Z,2.18
2018-12-27T19:18:18.325Z,2.14
2018-12-27T19:23:36.784Z,2.03
2018-12-27T19:28:55.246Z,1.96
2018-12-27T19:34:13.716Z,1.92
2018-12-27T19:39:32.197Z,1.99
2018-12-27T19:50:23.311Z,1.73
2018-12-27T19:55:41.913Z,1.67
2018-12-27T20:06:30.835Z,1.67
2018-12-27T20:11:49.295Z,1.57
2018-12-27T20:17:08.030Z,1.62
2018-12-27T20:22:26.498Z,1.45
2018-12-27T20:27:45.039Z,1.46
2018-12-27T20:38:36.019Z,1.27
2018-12-27T20:43:54.483Z,1.23
2018-12-27T20:49:12.957Z,1.17
2018-12-27T20:54:31.418Z,1.17
2018-12-27T20:59:49.877Z,1.24
2018-12-27T21:05:08.432Z,1.34
2018-12-27T21:10:26.909Z,1.25
2018-12-27T21:15:45.458Z,1.32
2018-12-27T21:21:03.937Z,1.28
2018-12-27T21:26:22.464Z,1.32
2018-12-27T21:31:40.931Z,1.25
2018-12-27T21:36:59.469Z,1.28
2018-12-27T21:42:17.935Z,1.19
2018-12-27T21:47:36.408Z,1.25
2018-12-27T21:52:54.884Z,1.22
2018-12-27T21:58:13.346Z,1.22
2018-12-27T22:03:31.815Z,1.18
2018-12-27T22:08:50.280Z,1.24
2018-12-27T22:14:08.746Z,1.33
2018-12-27T22:19:27.215Z,1.33
2018-12-27T22:24:45.674Z,1.34
2018-12-27T22:30:44.064Z,1.25
2018-12-27T22:36:02.791Z,1.19
2018-12-27T22:41:21.628Z,1.18
2018-12-27T22:46:40.099Z,1.22
2018-12-27T22:51:58.558Z,1.24
2018-12-27T23:02:47.548Z,1.12
2018-12-27T23:08:06.155Z,1.11
2018-12-27T23:13:24.620Z,1.11
2018-12-27T23:18:43.153Z,0.97
2018-12-27T23:24:20.979Z,0.94
2018-12-27T23:29:39.514Z,0.99
2018-12-27T23:34:57.980Z,0.99
2018-12-27T23:40:16.521Z,0.99
2018-12-27T23:45:35.022Z,0.95
2018-12-27T23:50:53.559Z,0.91
2018-12-27T23:56:12.158Z,0.93
